Time;durP1;ratioP1;P1;durP2;ratioP2;P2;SDS_P1;SDS_P2;PMS_P1;PMS_P2;Temp;Humidity;BMP_temperature;BMP_pressure;BME280_temperature;BME280_humidity;BME280_pressure;Samples;Min_cycle;Max_cycle;Signal;HPM_P1;HPM_P2
2022/02/22 00:01:23;;;;;;;25.00;6.13;;;5.10;1.00;;;;;;5076967;28;20526;-65
2022/02/22 00:03:52;;;;;;;24.33;5.80;;;5.10;1.00;;;;;;5077559;28;20462;-65
2022/02/22 00:06:19;;;;;;;23.53;5.40;;;5.10;1.00;;;;;;5076101;28;20457;-65
2022/02/22 00:08:48;;;;;;;24.77;6.20;;;5.10;1.00;;;;;;5077114;28;20461;-64
2022/02/22 00:11:15;;;;;;;20.00;6.50;;;5.20;1.00;;;;;;5076358;28;20457;-65
2022/02/22 00:13:42;;;;;;;20.33;5.77;;;5.20;1.00;;;;;;5076746;28;20845;-64
2022/02/22 00:16:12;;;;;;;23.30;6.97;;;5.10;1.00;;;;;;5077337;28;20556;-64
2022/02/22 00:18:43;;;;;;;21.07;7.00;;;5.10;1.00;;;;;;5077492;28;20526;-64
2022/02/22 00:21:11;;;;;;;25.80;7.10;;;5.10;1.00;;;;;;5077256;28;20956;-64
2022/02/22 00:23:38;;;;;;;31.30;7.33;;;5.10;1.00;;;;;;5059523;28;20545;-64
2022/02/22 00:26:07;;;;;;;21.57;6.90;;;5.10;1.00;;;;;;5077127;28;20744;-64
2022/02/22 00:28:37;;;;;;;20.60;7.70;;;5.00;1.00;;;;;;5077340;28;20461;-64
2022/02/22 00:31:04;;;;;;;35.13;7.00;;;5.00;1.00;;;;;;5077674;28;20488;-64
2022/02/22 00:33:30;;;;;;;44.40;32.70;;;5.00;1.00;;;;;;5077362;28;20757;-64
2022/02/22 00:35:58;;;;;;;19.90;7.10;;;5.00;1.00;;;;;;5076877;28;20469;-64
2022/02/22 00:38:28;;;;;;;31.80;6.83;;;5.10;1.00;;;;;;5076792;28;20839;-64
2022/02/22 00:40:55;;;;;;;41.10;8.90;;;5.00;1.00;;;;;;5076584;28;20506;-64
2022/02/22 00:43:23;;;;;;;28.30;6.60;;;5.00;1.00;;;;;;5077491;28;20476;-65
2022/02/22 00:45:50;;;;;;;36.93;6.90;;;5.00;1.00;;;;;;5077071;28;20465;-65
2022/02/22 00:48:19;;;;;;;21.07;6.43;;;5.10;1.00;;;;;;5076536;28;20542;-65
2022/02/22 00:50:46;;;;;;;25.23;6.73;;;5.10;1.00;;;;;;5076683;28;20467;-64
2022/02/22 00:53:13;;;;;;;18.93;5.90;;;5.10;1.00;;;;;;5077023;28;20448;-64
2022/02/22 00:55:40;;;;;;;26.80;8.57;;;5.10;1.00;;;;;;5076804;28;20465;-64
2022/02/22 00:58:07;;;;;;;30.77;7.57;;;5.10;34.00;;;;;;5076537;28;20488;-64
2022/02/22 01:00:35;;;;;;;26.70;6.83;;;5.00;88.40;;;;;;5076997;28;20548;-64
2022/02/22 01:03:02;;;;;;;14.90;4.60;;;5.00;99.90;;;;;;5077460;28;20496;-63
2022/02/22 01:05:30;;;;;;;17.40;4.30;;;4.90;1.00;;;;;;5078180;28;20523;-62
2022/02/22 01:07:57;;;;;;;19.47;4.40;;;4.60;1.00;;;;;;5077523;28;20457;-62
2022/02/22 01:10:24;;;;;;;14.00;4.90;;;4.40;1.00;;;;;;5077865;28;20879;-63
2022/02/22 01:12:51;;;;;;;21.00;5.17;;;4.10;99.90;;;;;;5077509;28;20578;-62
2022/02/22 01:15:18;;;;;;;19.93;4.50;;;3.90;99.90;;;;;;5077933;28;20466;-62
2022/02/22 01:17:46;;;;;;;16.97;4.20;;;3.80;1.00;;;;;;5077519;28;20492;-63
2022/02/22 01:20:14;;;;;;;15.00;4.60;;;3.80;1.00;;;;;;5077028;28;20810;-63
2022/02/22 01:22:42;;;;;;;15.53;4.40;;;3.80;37.40;;;;;;5080530;28;20495;-63
2022/02/22 01:25:10;;;;;;;18.40;5.20;;;3.70;99.90;;;;;;5080463;28;20514;-63
2022/02/22 01:27:38;;;;;;;15.40;5.33;;;3.80;99.90;;;;;;5080000;28;20453;-63
2022/02/22 01:30:07;;;;;;;20.70;4.97;;;3.80;99.90;;;;;;5080016;28;20465;-63
2022/02/22 01:32:35;;;;;;;18.70;5.43;;;3.80;99.90;;;;;;5080361;28;20461;-64
2022/02/22 01:35:04;;;;;;;19.13;5.83;;;3.80;1.00;;;;;;5067059;28;20465;-64
2022/02/22 01:37:33;;;;;;;22.30;6.47;;;3.80;1.00;;;;;;5079835;28;20492;-64
2022/02/22 01:40:00;;;;;;;23.90;8.20;;;3.90;99.90;;;;;;5078723;28;20465;-64
2022/02/22 01:42:27;;;;;;;29.47;7.67;;;3.80;1.00;;;;;;5079668;28;20488;-64
2022/02/22 01:44:54;;;;;;;26.70;8.30;;;3.90;1.00;;;;;;5079210;28;20473;-64
2022/02/22 01:47:21;;;;;;;32.50;8.00;;;4.00;1.00;;;;;;5079544;28;20507;-64
2022/02/22 01:49:51;;;;;;;33.33;8.87;;;3.90;99.90;;;;;;5078810;28;20523;-64
2022/02/22 01:52:20;;;;;;;20.50;7.90;;;3.90;65.40;;;;;;5079308;28;20519;-64
2022/02/22 01:54:50;;;;;;;25.90;6.93;;;4.00;1.00;;;;;;5078962;28;20527;-64
2022/02/22 01:57:19;;;;;;;35.50;7.63;;;4.00;99.90;;;;;;5078997;28;20857;-64
2022/02/22 01:59:46;;;;;;;26.13;7.60;;;4.00;99.90;;;;;;5078723;28;20751;-64
2022/02/22 02:02:13;;;;;;;34.20;9.53;;;4.10;1.00;;;;;;5079067;28;20465;-64
2022/02/22 02:04:40;;;;;;;26.70;7.53;;;4.10;3.40;;;;;;5079235;28;20810;-64
2022/02/22 02:07:08;;;;;;;36.90;9.40;;;4.10;49.50;;;;;;5079131;28;20482;-64
2022/02/22 02:09:36;;;;;;;50.30;8.40;;;4.20;99.90;;;;;;5079191;28;20561;-64
2022/02/22 02:12:04;;;;;;;40.43;8.07;;;4.20;99.90;;;;;;5077889;28;20535;-64
2022/02/22 02:14:32;;;;;;;29.87;7.20;;;4.10;99.90;;;;;;5078483;28;20926;-64
2022/02/22 02:16:59;;;;;;;25.83;7.57;;;4.20;99.90;;;;;;5078586;28;20497;-64
2022/02/22 02:19:26;;;;;;;26.57;8.63;;;4.20;99.90;;;;;;5078708;28;20466;-64
2022/02/22 02:21:58;;;;;;;39.17;8.97;;;4.10;99.90;;;;;;5078574;28;20514;-64
2022/02/22 02:24:26;;;;;;;30.67;8.63;;;4.10;99.90;;;;;;5067129;28;20462;-64
2022/02/22 02:26:55;;;;;;;36.77;7.03;;;4.10;91.60;;;;;;5078897;28;20522;-64
2022/02/22 02:29:24;;;;;;;27.87;8.70;;;4.00;99.90;;;;;;5078760;28;20760;-64
2022/02/22 02:31:52;;;;;;;36.87;9.07;;;4.00;99.90;;;;;;5078547;28;20893;-65
2022/02/22 02:34:21;;;;;;;32.17;8.20;;;4.00;99.90;;;;;;5078564;28;20531;-65
2022/02/22 02:36:48;;;;;;;27.83;6.80;;;4.10;99.90;;;;;;5078808;28;20468;-65
2022/02/22 02:39:16;;;;;;;38.37;8.60;;;4.10;99.90;;;;;;5078291;28;20526;-65
2022/02/22 02:41:45;;;;;;;35.73;8.67;;;4.10;99.90;;;;;;5078127;28;20514;-64
2022/02/22 02:44:13;;;;;;;34.60;8.70;;;4.20;99.90;;;;;;5077755;28;20465;-65
2022/02/22 02:46:42;;;;;;;40.60;8.50;;;4.20;99.90;;;;;;5078583;28;20461;-65
2022/02/22 02:49:10;;;;;;;25.27;8.40;;;4.20;99.90;;;;;;5078479;28;20457;-65
2022/02/22 02:51:38;;;;;;;25.63;6.80;;;4.20;99.90;;;;;;5078396;28;20747;-65
2022/02/22 02:54:05;;;;;;;37.30;7.33;;;4.20;96.90;;;;;;5077925;28;20451;-64
2022/02/22 02:56:34;;;;;;;33.83;8.80;;;4.20;1.00;;;;;;5077926;28;20469;-65
2022/02/22 02:59:04;;;;;;;32.33;7.07;;;4.20;1.00;;;;;;5077904;28;20834;-64
2022/02/22 03:01:34;;;;;;;25.87;8.70;;;4.10;99.90;;;;;;5078338;28;20461;-64
2022/02/22 03:04:02;;;;;;;33.93;10.07;;;4.10;99.90;;;;;;5077985;28;20518;-64
2022/02/22 03:06:29;;;;;;;30.30;8.03;;;4.00;99.90;;;;;;5077117;28;20523;-65
2022/02/22 03:08:56;;;;;;;24.57;7.80;;;3.90;1.00;;;;;;5078293;28;20468;-64
2022/02/22 03:11:23;;;;;;;29.83;7.87;;;3.90;99.90;;;;;;5077755;28;20515;-65
2022/02/22 03:13:52;;;;;;;31.43;7.60;;;3.90;1.00;;;;;;5077799;28;20485;-64
2022/02/22 03:16:19;;;;;;;33.80;8.30;;;3.90;1.00;;;;;;5077533;28;20497;-65
2022/02/22 03:18:46;;;;;;;22.57;6.47;;;4.00;1.00;;;;;;5077953;28;20489;-65
2022/02/22 03:21:13;;;;;;;25.67;8.00;;;4.00;1.00;;;;;;5082594;28;20461;-65
2022/02/22 03:23:40;;;;;;;26.87;7.33;;;4.00;1.00;;;;;;5077700;28;20440;-65
2022/02/22 03:26:08;;;;;;;29.80;7.07;;;4.00;93.80;;;;;;5077047;28;20465;-65
2022/02/22 03:28:35;;;;;;;25.70;6.67;;;4.10;99.90;;;;;;5077261;28;20883;-65
2022/02/22 03:31:05;;;;;;;28.57;7.70;;;4.10;96.60;;;;;;5077345;28;20474;-65
2022/02/22 03:33:32;;;;;;;35.47;7.70;;;4.10;35.30;;;;;;5078014;28;20534;-65
2022/02/22 03:36:00;;;;;;;32.57;7.50;;;4.10;1.00;;;;;;5077310;28;20534;-65
2022/02/22 03:38:27;;;;;;;30.80;8.03;;;4.10;1.00;;;;;;5076661;28;20515;-65
2022/02/22 03:40:55;;;;;;;24.50;6.53;;;4.10;1.00;;;;;;5076859;28;20859;-65
2022/02/22 03:43:22;;;;;;;25.90;7.00;;;4.10;1.00;;;;;;5077401;28;20968;-65
2022/02/22 03:45:49;;;;;;;32.30;7.77;;;4.10;1.00;;;;;;5077279;28;20892;-65
2022/02/22 03:48:17;;;;;;;33.43;10.03;;;4.10;99.90;;;;;;5076684;28;20512;-65
2022/02/22 03:50:45;;;;;;;24.30;7.90;;;4.00;99.90;;;;;;5077718;28;20890;-65
2022/02/22 03:53:12;;;;;;;29.77;7.30;;;4.10;1.00;;;;;;5076545;28;20807;-65
2022/02/22 03:55:39;;;;;;;26.83;7.97;;;4.10;1.00;;;;;;5077150;28;20550;-65
2022/02/22 03:58:06;;;;;;;30.17;9.10;;;4.10;1.00;;;;;;5075984;28;20811;-65
2022/02/22 04:00:35;;;;;;;31.20;7.33;;;4.10;1.00;;;;;;5077181;28;20436;-64
2022/02/22 04:03:03;;;;;;;27.27;7.53;;;4.10;1.00;;;;;;5076628;28;20478;-64
2022/02/22 04:05:33;;;;;;;32.87;7.53;;;4.10;1.00;;;;;;5077488;28;20518;-65
2022/02/22 04:08:00;;;;;;;30.20;6.57;;;4.10;99.90;;;;;;5076396;28;20481;-65
2022/02/22 04:10:27;;;;;;;36.40;7.07;;;4.10;99.90;;;;;;5076802;28;20754;-65
2022/02/22 04:12:54;;;;;;;30.97;8.17;;;4.00;1.00;;;;;;5076707;28;20542;-65
2022/02/22 04:15:21;;;;;;;28.73;7.90;;;4.00;99.90;;;;;;5077026;28;20461;-65
2022/02/22 04:17:49;;;;;;;30.83;7.70;;;4.00;1.00;;;;;;5076637;28;20493;-65
2022/02/22 04:20:17;;;;;;;27.10;6.73;;;4.00;1.00;;;;;;5077276;28;20555;-65
2022/02/22 04:22:46;;;;;;;29.53;7.30;;;4.00;99.90;;;;;;5076040;28;20472;-65
2022/02/22 04:25:13;;;;;;;25.53;7.60;;;4.10;1.00;;;;;;5076922;28;20800;-65
2022/02/22 04:27:41;;;;;;;29.67;8.60;;;4.10;1.00;;;;;;5076769;28;20530;-65
2022/02/22 04:30:09;;;;;;;23.67;6.67;;;4.20;26.70;;;;;;5076833;28;20542;-65
2022/02/22 04:32:39;;;;;;;24.83;6.20;;;4.10;1.00;;;;;;5076120;28;20820;-65
2022/02/22 04:35:08;;;;;;;24.13;7.53;;;4.10;1.00;;;;;;5076854;28;20519;-65
2022/02/22 04:37:36;;;;;;;32.93;8.40;;;4.10;1.00;;;;;;5076691;28;20552;-65
2022/02/22 04:40:06;;;;;;;26.10;6.23;;;4.10;99.90;;;;;;5076909;28;20772;-65
2022/02/22 04:42:35;;;;;;;28.03;6.80;;;4.20;1.00;;;;;;5076246;28;20461;-65
2022/02/22 04:45:02;;;;;;;32.77;8.60;;;4.20;1.00;;;;;;5076621;28;20457;-65
2022/02/22 04:47:29;;;;;;;32.20;7.93;;;4.20;23.40;;;;;;5076426;28;20469;-65
2022/02/22 04:49:56;;;;;;;35.00;8.80;;;4.20;14.50;;;;;;5076302;28;20439;-65
2022/02/22 04:52:23;;;;;;;28.00;7.60;;;4.20;27.70;;;;;;5075663;28;20511;-65
2022/02/22 04:54:50;;;;;;;33.77;8.60;;;4.20;62.40;;;;;;5076802;28;20530;-65
2022/02/22 04:57:18;;;;;;;35.60;9.53;;;4.20;94.80;;;;;;5079689;28;20465;-65
2022/02/22 04:59:45;;;;;;;25.63;8.37;;;4.20;99.90;;;;;;5079745;28;20493;-65
2022/02/22 05:02:12;;;;;;;27.80;8.60;;;4.20;99.90;;;;;;5080287;28;20526;-64
2022/02/22 05:04:39;;;;;;;26.97;8.23;;;4.20;99.90;;;;;;5079560;28;20827;-65
2022/02/22 05:07:07;;;;;;;25.93;7.77;;;4.20;99.90;;;;;;5080154;28;20457;-65
2022/02/22 05:09:34;;;;;;;27.80;7.43;;;4.20;99.90;;;;;;5080212;28;20465;-65
2022/02/22 05:12:01;;;;;;;34.87;8.80;;;4.10;99.90;;;;;;5080223;28;20457;-65
2022/02/22 05:14:30;;;;;;;33.50;9.07;;;4.20;99.90;;;;;;5079224;28;20833;-65
2022/02/22 05:16:57;;;;;;;32.13;9.07;;;4.20;99.90;;;;;;5080086;28;20530;-65
2022/02/22 05:19:24;;;;;;;32.53;8.30;;;4.20;99.90;;;;;;5079588;28;20535;-65
2022/02/22 05:21:51;;;;;;;36.03;11.13;;;4.20;99.90;;;;;;5079601;28;20461;-65
2022/02/22 05:24:18;;;;;;;33.63;9.37;;;4.20;99.90;;;;;;5079513;28;20436;-65
2022/02/22 05:26:45;;;;;;;36.77;11.17;;;4.10;99.90;;;;;;5076302;28;20472;-65
2022/02/22 05:29:12;;;;;;;38.93;12.17;;;4.10;99.90;;;;;;5078375;28;20894;-65
2022/02/22 05:31:41;;;;;;;37.07;11.10;;;4.20;99.90;;;;;;5077898;28;20458;-65
2022/02/22 05:34:08;;;;;;;35.13;12.77;;;4.20;99.90;;;;;;5077518;28;20761;-65
2022/02/22 05:36:35;;;;;;;34.37;12.40;;;4.20;99.90;;;;;;5077012;28;20465;-64
2022/02/22 05:39:03;;;;;;;35.70;12.27;;;4.20;99.90;;;;;;5077910;28;20856;-65
2022/02/22 05:41:30;;;;;;;35.73;11.60;;;4.10;99.90;;;;;;5078460;28;20871;-65
2022/02/22 05:43:57;;;;;;;35.43;10.87;;;4.10;99.90;;;;;;5078634;28;20466;-65
2022/02/22 05:46:24;;;;;;;31.70;11.97;;;4.10;99.90;;;;;;5078620;28;20514;-65
2022/02/22 05:48:53;;;;;;;34.27;11.70;;;4.10;99.90;;;;;;5078798;28;20461;-65
2022/02/22 05:51:20;;;;;;;37.30;12.47;;;4.10;99.90;;;;;;5079110;28;20464;-65
2022/02/22 05:53:48;;;;;;;39.83;13.63;;;4.10;99.90;;;;;;5077664;28;20538;-65
2022/02/22 05:56:15;;;;;;;37.63;13.07;;;4.10;99.90;;;;;;5077623;28;20475;-65
2022/02/22 05:58:42;;;;;;;36.37;13.40;;;4.10;99.90;;;;;;5079215;28;20813;-65
2022/02/22 06:01:09;;;;;;;41.27;13.57;;;4.10;99.90;;;;;;5079097;28;20813;-65
2022/02/22 06:03:36;;;;;;;36.20;15.10;;;4.10;99.90;;;;;;5079062;28;20461;-65
2022/02/22 06:06:05;;;;;;;44.43;15.13;;;4.10;99.90;;;;;;5077051;28;20519;-65
2022/02/22 06:08:32;;;;;;;47.73;15.40;;;4.10;99.90;;;;;;5077230;28;20458;-65
2022/02/22 06:10:59;;;;;;;35.33;14.90;;;4.10;99.90;;;;;;5077209;28;20461;-65
2022/02/22 06:13:26;;;;;;;46.53;14.50;;;4.00;99.90;;;;;;5076996;28;20921;-65
2022/02/22 06:15:53;;;;;;;41.77;14.20;;;4.00;99.90;;;;;;5076795;28;20457;-65
2022/02/22 06:18:20;;;;;;;53.50;16.40;;;4.10;99.90;;;;;;5077226;28;20489;-65
2022/02/22 06:20:48;;;;;;;42.77;14.80;;;4.10;99.90;;;;;;5078485;28;20465;-65
2022/02/22 06:23:16;;;;;;;36.70;13.77;;;4.10;99.90;;;;;;5077565;28;20559;-65
2022/02/22 06:25:43;;;;;;;27.40;14.07;;;4.10;99.90;;;;;;5074759;28;20530;-65
2022/02/22 06:28:12;;;;;;;46.80;15.17;;;4.00;99.90;;;;;;5076887;28;20465;-65
2022/02/22 06:30:39;;;;;;;40.60;15.70;;;4.10;99.90;;;;;;5076860;28;20794;-65
2022/02/22 06:33:07;;;;;;;43.90;14.10;;;4.00;99.90;;;;;;5076528;28;20465;-65
2022/02/22 06:35:37;;;;;;;42.77;14.70;;;4.00;99.90;;;;;;5077024;28;20876;-65
2022/02/22 06:38:04;;;;;;;37.53;15.30;;;3.90;99.90;;;;;;5073925;28;20473;-65
2022/02/22 06:40:32;;;;;;;39.67;17.23;;;4.10;99.90;;;;;;5077057;28;20511;-63
2022/02/22 06:42:59;;;;;;;51.87;16.77;;;4.10;99.90;;;;;;5075631;28;20492;-63
2022/02/22 06:45:28;;;;;;;34.17;14.67;;;4.10;99.90;;;;;;5076365;28;20825;-63
2022/02/22 06:47:58;;;;;;;45.60;15.60;;;4.10;99.90;;;;;;5076710;28;20501;-63
2022/02/22 06:50:25;;;;;;;40.33;16.40;;;4.20;99.90;;;;;;5076673;28;20466;-63
2022/02/22 06:52:53;;;;;;;39.43;15.00;;;4.10;99.90;;;;;;5076407;28;20564;-63
2022/02/22 06:55:20;;;;;;;32.57;14.83;;;4.20;99.90;;;;;;5077840;28;20461;-63
2022/02/22 06:57:51;;;;;;;42.53;14.40;;;4.20;99.90;;;;;;5076685;28;20461;-63
2022/02/22 07:00:19;;;;;;;34.87;14.37;;;4.20;99.90;;;;;;5077046;28;20476;-63
2022/02/22 07:02:46;;;;;;;34.20;12.50;;;4.20;99.90;;;;;;5077326;28;20499;-63
2022/02/22 07:05:18;;;;;;;35.00;14.00;;;4.20;99.90;;;;;;5077545;28;20462;-63
2022/02/22 07:07:46;;;;;;;36.63;12.50;;;4.10;99.90;;;;;;5076954;28;20461;-63
2022/02/22 07:10:13;;;;;;;33.00;12.80;;;4.10;99.90;;;;;;5076287;28;20580;-63
2022/02/22 07:12:40;;;;;;;28.40;9.40;;;4.10;99.90;;;;;;5076439;28;20497;-62
2022/02/22 07:15:09;;;;;;;37.27;9.50;;;4.10;99.90;;;;;;5077792;28;20457;-62
2022/02/22 07:17:46;;;;;;;35.40;9.90;;;4.10;99.90;;;;;;5077080;28;20457;-63
2022/02/22 07:20:14;;;;;;;33.70;10.87;;;4.20;99.90;;;;;;5081674;28;20467;-63
2022/02/22 07:22:41;;;;;;;23.23;10.07;;;4.10;99.90;;;;;;5076952;28;20465;-63
2022/02/22 07:25:09;;;;;;;27.33;9.80;;;4.20;99.90;;;;;;5077340;28;20520;-63
2022/02/22 07:27:36;;;;;;;47.30;12.70;;;4.20;99.90;;;;;;5077138;28;20461;-63
2022/02/22 07:30:04;;;;;;;29.93;12.13;;;4.20;99.90;;;;;;5076550;28;20462;-63
2022/02/22 07:32:33;;;;;;;34.03;12.67;;;4.20;99.90;;;;;;5077307;28;20461;-63
2022/02/22 07:35:03;;;;;;;36.40;12.50;;;4.20;99.90;;;;;;5077599;28;20887;-63
2022/02/22 07:37:31;;;;;;;28.03;10.90;;;4.20;99.90;;;;;;5077535;28;20507;-63
2022/02/22 07:39:58;;;;;;;33.33;12.50;;;4.30;99.90;;;;;;5076458;28;20489;-63
2022/02/22 07:42:25;;;;;;;39.93;12.93;;;4.20;99.90;;;;;;5077294;28;20725;-63
2022/02/22 07:44:52;;;;;;;30.37;12.13;;;4.20;99.90;;;;;;5077202;28;20520;-63
2022/02/22 07:47:20;;;;;;;44.20;13.10;;;4.20;99.90;;;;;;5077438;28;20514;-63
2022/02/22 07:49:48;;;;;;;37.50;12.93;;;4.20;99.90;;;;;;5076693;28;20461;-64
2022/02/22 07:52:15;;;;;;;40.40;13.20;;;4.20;99.90;;;;;;5076721;28;20891;-63
2022/02/22 07:54:45;;;;;;;38.03;15.70;;;4.30;99.90;;;;;;5077170;28;20461;-63
2022/02/22 07:57:12;;;;;;;43.50;14.33;;;4.30;99.90;;;;;;5077573;28;20440;-64
2022/02/22 07:59:39;;;;;;;36.17;13.80;;;4.40;99.90;;;;;;5076938;28;20832;-64
2022/02/22 08:02:06;;;;;;;26.37;12.80;;;4.40;99.90;;;;;;5076593;28;20465;-64
2022/02/22 08:04:33;;;;;;;51.23;15.20;;;4.50;99.90;;;;;;5076422;28;20458;-64
2022/02/22 08:07:05;;;;;;;34.50;13.33;;;4.50;99.90;;;;;;5076761;28;20465;-64
2022/02/22 08:09:32;;;;;;;35.20;14.17;;;4.60;99.90;;;;;;5076792;28;20508;-64
2022/02/22 08:11:59;;;;;;;37.53;15.07;;;4.60;99.90;;;;;;5076356;28;20474;-64
2022/02/22 08:14:26;;;;;;;29.50;14.33;;;4.60;99.90;;;;;;5076797;28;20521;-64
2022/02/22 08:16:57;;;;;;;42.47;13.10;;;4.60;99.90;;;;;;5076875;28;20468;-64
2022/02/22 08:19:24;;;;;;;37.53;12.70;;;4.70;99.90;;;;;;5077439;28;20489;-64
2022/02/22 08:21:53;;;;;;;27.63;11.70;;;4.70;99.90;;;;;;5076837;28;20461;-64
2022/02/22 08:24:25;;;;;;;26.77;11.03;;;4.70;99.90;;;;;;5077013;28;20463;-64
2022/02/22 08:26:54;;;;;;;25.93;10.20;;;4.80;99.90;;;;;;5077341;28;20466;-64
2022/02/22 08:29:21;;;;;;;26.73;10.27;;;4.80;99.90;;;;;;5077946;28;20457;-64
2022/02/22 08:31:48;;;;;;;34.73;11.80;;;4.90;30.30;;;;;;5081172;28;20465;-64
2022/02/22 08:34:15;;;;;;;33.47;9.77;;;5.00;1.00;;;;;;5080715;28;20461;-64
2022/02/22 08:36:42;;;;;;;24.00;9.20;;;5.00;99.90;;;;;;5081210;28;20469;-64
2022/02/22 08:39:10;;;;;;;26.03;10.60;;;5.10;1.00;;;;;;5081414;28;20774;-65
2022/02/22 08:41:38;;;;;;;31.17;8.97;;;5.10;1.00;;;;;;5081134;28;20465;-64
2022/02/22 08:44:06;;;;;;;27.53;10.10;;;5.30;99.90;;;;;;5080385;28;20469;-64
2022/02/22 08:46:33;;;;;;;23.47;8.40;;;5.40;99.90;;;;;;5080924;28;20737;-64
2022/02/22 08:49:00;;;;;;;23.00;8.57;;;5.50;10.30;;;;;;5080567;28;20523;-64
2022/02/22 08:51:27;;;;;;;24.07;9.87;;;5.60;1.00;;;;;;5080957;28;20465;-65
2022/02/22 08:53:54;;;;;;;21.57;7.87;;;5.60;99.90;;;;;;5079898;28;20894;-64
2022/02/22 08:56:21;;;;;;;25.93;8.30;;;5.60;99.90;;;;;;5080781;28;20510;-65
2022/02/22 08:58:53;;;;;;;19.27;8.80;;;5.70;99.90;;;;;;5080155;28;20473;-65
2022/02/22 09:01:20;;;;;;;23.73;8.90;;;5.70;99.90;;;;;;5080501;28;20507;-65
2022/02/22 09:03:48;;;;;;;21.57;7.73;;;5.90;99.90;;;;;;5079877;28;20453;-65
2022/02/22 09:06:15;;;;;;;22.33;8.03;;;6.00;99.90;;;;;;5080281;28;20453;-65
2022/02/22 09:08:42;;;;;;;18.93;8.53;;;6.00;99.90;;;;;;5080122;28;20499;-65
2022/02/22 09:11:09;;;;;;;22.83;10.33;;;6.20;99.90;;;;;;5080115;28;20453;-65
2022/02/22 09:13:36;;;;;;;23.10;8.77;;;6.00;58.80;;;;;;5079733;28;20485;-65
2022/02/22 09:16:05;;;;;;;23.83;8.60;;;6.10;92.10;;;;;;5079361;28;20464;-65
2022/02/22 09:18:32;;;;;;;18.90;7.30;;;6.30;7.90;;;;;;5079662;28;20465;-65
2022/02/22 09:21:00;;;;;;;20.60;6.83;;;6.30;1.00;;;;;;5079664;28;20849;-65
2022/02/22 09:23:27;;;;;;;20.43;8.17;;;6.40;1.00;;;;;;5080120;28;20511;-65
2022/02/22 09:25:55;;;;;;;19.40;7.27;;;6.30;1.00;;;;;;5078936;28;20465;-65
2022/02/22 09:28:24;;;;;;;25.57;8.03;;;6.30;1.00;;;;;;5079682;28;20457;-65
2022/02/22 09:30:52;;;;;;;28.10;8.53;;;6.40;1.00;;;;;;5079663;28;20522;-65
2022/02/22 09:33:20;;;;;;;27.03;8.87;;;6.30;1.00;;;;;;5080339;28;20484;-65
2022/02/22 09:35:47;;;;;;;19.20;7.73;;;6.30;1.00;;;;;;5079039;28;20779;-64
2022/02/22 09:38:14;;;;;;;16.90;8.07;;;6.20;1.00;;;;;;5079492;28;20508;-64
2022/02/22 09:40:41;;;;;;;16.93;8.10;;;6.20;1.00;;;;;;5079373;28;20493;-64
2022/02/22 09:43:08;;;;;;;22.17;8.50;;;6.30;1.00;;;;;;5079421;28;20522;-64
2022/02/22 09:45:35;;;;;;;17.13;9.27;;;6.30;1.00;;;;;;5079018;28;20461;-64
2022/02/22 09:48:04;;;;;;;23.47;8.13;;;6.30;1.00;;;;;;5079834;28;20519;-64
2022/02/22 09:50:34;;;;;;;24.60;8.37;;;6.30;1.00;;;;;;5079534;28;20553;-64
2022/02/22 09:53:04;;;;;;;14.53;7.40;;;6.30;1.00;;;;;;5080142;28;20462;-64
2022/02/22 09:55:31;;;;;;;12.77;7.10;;;6.30;1.00;;;;;;5078959;28;20465;-64
2022/02/22 09:57:58;;;;;;;19.03;7.30;;;6.50;1.00;;;;;;5079250;28;20523;-65
2022/02/22 10:00:26;;;;;;;14.23;7.53;;;6.60;1.00;;;;;;5079245;28;20497;-64
2022/02/22 10:02:53;;;;;;;13.60;6.60;;;6.80;1.00;;;;;;5079561;28;20468;-64
2022/02/22 10:05:23;;;;;;;18.77;7.20;;;6.90;1.00;;;;;;5079321;28;20515;-65
2022/02/22 10:07:54;;;;;;;22.13;8.80;;;7.00;1.00;;;;;;5078165;28;20465;-64
2022/02/22 10:10:36;;;;;;;18.73;7.30;;;6.80;1.00;;;;;;5079339;28;20511;-64
2022/02/22 10:13:04;;;;;;;18.40;5.73;;;6.80;1.00;;;;;;5076018;28;20961;-64
2022/02/22 10:15:38;;;;;;;15.70;7.10;;;6.80;1.00;;;;;;5079481;28;20461;-64
2022/02/22 10:18:06;;;;;;;12.57;6.73;;;6.90;1.00;;;;;;5079273;28;20472;-64
2022/02/22 10:20:33;;;;;;;15.73;6.03;;;6.90;1.00;;;;;;5078796;28;20588;-64
2022/02/22 10:23:02;;;;;;;20.77;8.00;;;7.00;1.00;;;;;;5077802;28;20465;-64
2022/02/22 10:25:29;;;;;;;16.10;7.40;;;7.00;1.00;;;;;;5078962;28;20500;-64
2022/02/22 10:27:59;;;;;;;19.27;7.37;;;7.00;1.00;;;;;;5078637;28;20457;-64
2022/02/22 10:30:41;;;;;;;19.10;6.90;;;7.00;1.00;;;;;;5078480;28;20953;-64
2022/02/22 10:33:13;;;;;;;26.03;7.20;;;7.20;1.00;;;;;;5078449;28;20492;-64
2022/02/22 10:35:40;;;;;;;16.90;7.00;;;7.40;1.00;;;;;;5078484;28;20461;-64
2022/02/22 10:38:22;;;;;;;17.40;6.60;;;7.50;1.00;;;;;;5078164;28;20510;-64
2022/02/22 10:40:58;;;;;;;13.20;6.90;;;7.60;1.00;;;;;;5078528;28;20511;-64
2022/02/22 10:43:27;;;;;;;18.30;6.93;;;7.70;1.00;;;;;;5077480;28;20465;-64
2022/02/22 10:45:59;;;;;;;13.10;6.33;;;7.80;1.00;;;;;;5078227;28;20446;-64
2022/02/22 10:48:35;;;;;;;9.20;5.97;;;7.80;1.00;;;;;;5077957;28;20461;-64
2022/02/22 10:51:04;;;;;;;21.17;7.00;;;7.90;1.00;;;;;;5078439;28;20452;-64
2022/02/22 10:53:35;;;;;;;12.10;6.87;;;7.80;1.00;;;;;;5076651;28;20832;-64
2022/02/22 10:56:04;;;;;;;21.87;7.60;;;7.70;1.00;;;;;;5078064;28;20956;-64
2022/02/22 10:58:34;;;;;;;16.27;7.00;;;7.70;1.00;;;;;;5077409;28;20526;-64
2022/02/22 11:01:03;;;;;;;17.67;6.87;;;7.60;1.00;;;;;;5078051;28;20500;-64
2022/02/22 11:03:35;;;;;;;20.53;7.40;;;7.60;1.00;;;;;;5077799;28;20473;-62
2022/02/22 11:06:02;;;;;;;14.00;7.43;;;7.50;1.00;;;;;;5077753;28;20875;-63
2022/02/22 11:08:34;;;;;;;21.03;8.13;;;7.50;1.00;;;;;;5076836;28;20466;-63
2022/02/22 11:11:09;;;;;;;18.63;8.37;;;7.50;1.00;;;;;;5077881;28;20859;-63
2022/02/22 11:13:39;;;;;;;20.03;6.70;;;7.50;1.00;;;;;;5076330;28;21018;-63
2022/02/22 11:16:17;;;;;;;17.30;7.30;;;7.40;1.00;;;;;;5077981;28;20468;-64
2022/02/22 11:18:47;;;;;;;19.87;7.20;;;7.50;1.00;;;;;;5077305;28;20843;-63
2022/02/22 11:21:15;;;;;;;17.10;7.03;;;7.50;1.00;;;;;;5087798;28;20576;-63
2022/02/22 11:23:48;;;;;;;23.00;6.60;;;7.50;1.00;;;;;;5076708;28;20473;-63
2022/02/22 11:26:19;;;;;;;16.73;6.90;;;7.70;1.00;;;;;;5076942;28;20457;-64
2022/02/22 11:28:49;;;;;;;12.07;5.10;;;7.80;1.00;;;;;;5076689;28;20550;-63
2022/02/22 11:31:19;;;;;;;21.07;7.93;;;7.90;1.00;;;;;;5077668;28;20457;-63
2022/02/22 11:33:48;;;;;;;12.67;6.67;;;7.90;1.00;;;;;;5077335;28;20875;-63
2022/02/22 11:36:26;;;;;;;12.80;6.20;;;7.90;1.00;;;;;;5077653;28;20496;-63
2022/02/22 11:38:54;;;;;;;13.43;5.80;;;7.90;1.00;;;;;;5076013;28;20924;-63
2022/02/22 11:41:25;;;;;;;12.50;5.43;;;7.80;1.00;;;;;;5071129;28;20496;-63
2022/02/22 11:43:58;;;;;;;15.63;7.00;;;7.70;1.00;;;;;;5075172;28;20501;-63
2022/02/22 11:46:41;;;;;;;9.57;5.70;;;7.80;1.00;;;;;;5075359;28;20465;-63
2022/02/22 11:49:10;;;;;;;15.37;6.20;;;7.90;1.00;;;;;;5075488;28;20465;-63
2022/02/22 11:51:45;;;;;;;14.83;6.53;;;8.00;1.00;;;;;;5075150;28;20526;-63
2022/02/22 11:54:14;;;;;;;12.63;6.00;;;8.00;1.00;;;;;;5076110;28;20769;-63
2022/02/22 11:56:43;;;;;;;14.27;5.90;;;8.00;1.00;;;;;;5076389;28;20465;-63
2022/02/22 11:59:18;;;;;;;14.23;6.33;;;8.00;1.00;;;;;;5077501;28;20514;-63
2022/02/22 12:01:49;;;;;;;16.93;5.57;;;7.90;1.00;;;;;;5075935;28;20497;-63
2022/02/22 12:04:23;;;;;;;12.60;5.43;;;7.80;1.00;;;;;;5076346;28;20465;-63
2022/02/22 12:06:53;;;;;;;16.77;5.63;;;7.70;1.00;;;;;;5077132;28;20534;-63
2022/02/22 12:09:21;;;;;;;11.50;5.67;;;7.70;1.00;;;;;;5076091;28;20466;-63
2022/02/22 12:11:49;;;;;;;13.70;5.27;;;7.70;1.00;;;;;;5074072;28;20551;-63
2022/02/22 12:14:19;;;;;;;25.47;6.40;;;7.60;1.00;;;;;;5075775;28;20489;-64
2022/02/22 12:16:48;;;;;;;18.60;5.70;;;7.60;1.00;;;;;;5076272;28;20530;-63
2022/02/22 12:19:20;;;;;;;15.50;5.67;;;7.50;1.00;;;;;;5076471;28;20472;-63
2022/02/22 12:21:47;;;;;;;12.07;6.50;;;7.40;1.00;;;;;;5063991;28;20531;-63
2022/02/22 12:24:15;;;;;;;17.13;7.13;;;7.40;1.00;;;;;;5076205;28;20461;-63
2022/02/22 12:26:43;;;;;;;16.17;6.00;;;7.40;1.00;;;;;;5075226;28;20966;-63
2022/02/22 12:29:11;;;;;;;24.37;6.30;;;7.40;1.00;;;;;;5076823;28;20471;-63
2022/02/22 12:31:42;;;;;;;15.57;5.57;;;7.40;1.00;;;;;;5075576;28;20526;-62
2022/02/22 12:34:14;;;;;;;19.93;5.50;;;7.40;1.00;;;;;;5076683;28;20929;-63
2022/02/22 12:36:42;;;;;;;14.43;5.27;;;7.40;1.00;;;;;;5076416;28;20523;-64
2022/02/22 12:39:13;;;;;;;22.53;6.97;;;7.40;1.00;;;;;;5077033;28;20506;-63
2022/02/22 12:41:42;;;;;;;23.43;9.70;;;7.40;98.10;;;;;;5075810;28;20490;-64
2022/02/22 12:44:13;;;;;;;30.43;7.40;;;7.50;99.90;;;;;;5076234;28;20465;-64
2022/02/22 12:46:44;;;;;;;21.37;5.47;;;7.50;99.90;;;;;;5076246;28;20469;-64
2022/02/22 12:49:16;;;;;;;21.10;6.00;;;7.50;99.90;;;;;;5077054;28;20457;-64
2022/02/22 12:51:45;;;;;;;22.00;7.20;;;7.30;99.90;;;;;;5076115;28;20461;-61
2022/02/22 12:54:14;;;;;;;15.40;6.50;;;7.30;1.00;;;;;;5076375;28;20466;-59
2022/02/22 12:56:43;;;;;;;24.37;6.00;;;7.20;29.50;;;;;;5076222;28;20461;-61